Time;durP1;ratioP1;P1;durP2;ratioP2;P2;SDS_P1;SDS_P2;PMS_P1;PMS_P2;Temp;Humidity;BMP_temperature;BMP_pressure;BME280_temperature;BME280_humidity;BME280_pressure;Samples;Min_cycle;Max_cycle;Signal;HPM_P1;HPM_P2
2021/12/27 00:01:46;;;;;;;26.35;18.35;;;-0.20;99.90;;;;;;5002261;28;89404;-38
2021/12/27 00:04:11;;;;;;;26.52;17.15;;;-0.10;99.90;;;;;;5001414;28;89143;-36
2021/12/27 00:06:37;;;;;;;23.25;16.45;;;-0.20;99.90;;;;;;5001435;28;89179;-45
2021/12/27 00:09:03;;;;;;;24.45;17.38;;;-0.20;99.90;;;;;;5001992;28;88414;-37
2021/12/27 00:11:28;;;;;;;32.65;21.67;;;-0.30;99.90;;;;;;5001694;28;90091;-36
2021/12/27 00:13:54;;;;;;;27.17;20.50;;;-0.30;99.90;;;;;;5001413;28;90189;-37
2021/12/27 00:16:20;;;;;;;22.52;17.13;;;-0.20;99.90;;;;;;4983362;28;90721;-38
2021/12/27 00:18:45;;;;;;;26.60;18.52;;;-0.20;99.90;;;;;;5001968;28;89465;-44
2021/12/27 00:21:11;;;;;;;26.35;19.25;;;-0.20;99.90;;;;;;5001950;28;88904;-42
2021/12/27 00:23:36;;;;;;;25.75;18.75;;;-0.20;99.90;;;;;;5001803;28;89639;-45
2021/12/27 00:26:02;;;;;;;29.38;21.15;;;-0.20;99.90;;;;;;5001491;28;88423;-37
2021/12/27 00:28:30;;;;;;;24.48;17.58;;;-0.20;99.90;;;;;;5000911;28;88787;-36
2021/12/27 00:30:56;;;;;;;28.40;20.35;;;-0.20;99.90;;;;;;5001093;28;89071;-37
2021/12/27 00:33:22;;;;;;;29.33;20.17;;;-0.10;99.90;;;;;;5000955;28;90365;-44
2021/12/27 00:35:48;;;;;;;29.95;22.45;;;-0.10;99.90;;;;;;5001266;28;90021;-40
2021/12/27 00:38:14;;;;;;;25.00;19.15;;;-0.20;99.90;;;;;;5001621;28;88552;-35
2021/12/27 00:40:39;;;;;;;27.95;19.83;;;-0.20;99.90;;;;;;5000597;28;90007;-40
2021/12/27 00:43:05;;;;;;;27.48;19.15;;;-0.30;99.90;;;;;;5000736;28;90199;-44
2021/12/27 00:45:31;;;;;;;26.90;19.25;;;-0.20;99.90;;;;;;5001010;28;89611;-39
2021/12/27 00:47:57;;;;;;;26.05;21.73;;;-0.20;99.90;;;;;;5001414;28;89681;-39
2021/12/27 00:50:23;;;;;;;29.50;21.40;;;-0.20;99.90;;;;;;5001207;28;88925;-41
2021/12/27 00:52:50;;;;;;;21.60;16.70;;;-0.20;99.90;;;;;;5000731;28;91343;-41
2021/12/27 00:55:16;;;;;;;19.65;17.55;;;-0.10;99.90;;;;;;5000238;28;89600;-39
2021/12/27 00:57:42;;;;;;;22.20;19.17;;;-0.20;99.90;;;;;;5001843;28;88430;-37
2021/12/27 01:00:14;;;;;;;21.58;15.88;;;-0.10;99.90;;;;;;5000530;28;88156;-41
2021/12/27 01:02:39;;;;;;;27.90;20.13;;;-0.10;99.90;;;;;;4982947;28;89412;-38
2021/12/27 01:05:06;;;;;;;21.92;17.48;;;-0.10;99.90;;;;;;4999911;28;89562;-35
2021/12/27 01:07:31;;;;;;;29.35;20.67;;;-0.10;99.90;;;;;;5001502;28;87530;-37
2021/12/27 01:10:19;;;;;;;27.48;21.35;;;-0.10;99.90;;;;;;5000909;28;88805;-35
2021/12/27 01:12:50;;;;;;;33.47;19.10;;;-0.10;99.90;;;;;;4986156;28;90230;-39
2021/12/27 01:17:45;;;;;;;;;;;-0.20;99.90;;;;;;5001439;28;88684;-41
2021/12/27 01:20:13;;;;;;;30.48;21.42;;;-0.30;99.90;;;;;;5002845;28;88733;-37
2021/12/27 01:22:39;;;;;;;29.45;20.40;;;-0.30;99.90;;;;;;5000370;28;88950;-43
2021/12/27 01:27:36;;;;;;;27.65;20.17;;;-0.10;99.90;;;;;;4999449;28;89470;-34
2021/12/27 01:30:04;;;;;;;27.25;21.25;;;-0.10;99.90;;;;;;5000850;28;88598;-40
2021/12/27 01:32:35;;;;;;;29.70;21.30;;;-0.10;99.90;;;;;;5000718;28;91700;-36
2021/12/27 01:35:01;;;;;;;27.08;21.08;;;-0.10;99.90;;;;;;5000480;28;89805;-36
2021/12/27 01:37:26;;;;;;;24.67;19.45;;;-0.10;99.90;;;;;;5000205;28;88232;-35
2021/12/27 01:39:52;;;;;;;27.83;21.90;;;-0.10;99.90;;;;;;4999987;28;87697;-40
2021/12/27 01:42:17;;;;;;;26.42;19.65;;;-0.10;99.90;;;;;;4999966;28;90364;-40
2021/12/27 01:44:43;;;;;;;26.38;22.67;;;-0.10;99.90;;;;;;5000351;28;89875;-38
2021/12/27 01:47:09;;;;;;;31.20;21.55;;;-0.10;99.90;;;;;;5000374;28;88836;-39
2021/12/27 01:49:37;;;;;;;23.17;19.35;;;-0.20;99.90;;;;;;5000261;28;89016;-41
2021/12/27 01:52:03;;;;;;;26.30;22.63;;;-0.20;99.90;;;;;;5000052;28;90298;-41
2021/12/27 01:54:29;;;;;;;27.05;19.90;;;-0.10;99.90;;;;;;4999880;28;89669;-36
2021/12/27 01:56:55;;;;;;;32.45;21.00;;;-0.20;99.90;;;;;;5000714;28;89954;-39
2021/12/27 01:59:21;;;;;;;26.10;20.85;;;-0.10;99.90;;;;;;4999696;28;88885;-41
2021/12/27 02:01:46;;;;;;;30.20;21.83;;;-0.10;99.90;;;;;;5000206;28;90464;-40
2021/12/27 02:04:12;;;;;;;27.35;22.58;;;-0.10;99.90;;;;;;4998143;28;89870;-35
2021/12/27 02:06:38;;;;;;;29.50;21.83;;;0.00;99.90;;;;;;5002084;28;89027;-41
2021/12/27 02:09:04;;;;;;;25.35;20.45;;;0.00;99.90;;;;;;5004367;28;88393;-41
2021/12/27 02:11:34;;;;;;;28.08;22.52;;;0.10;99.90;;;;;;5003554;28;90364;-36
2021/12/27 02:14:02;;;;;;;31.83;22.58;;;0.00;99.90;;;;;;5003107;28;90025;-43
2021/12/27 02:16:27;;;;;;;29.98;25.35;;;0.00;99.90;;;;;;5003412;28;88383;-33
2021/12/27 02:18:53;;;;;;;28.55;22.45;;;0.00;99.90;;;;;;5004139;28;89200;-38
2021/12/27 02:21:20;;;;;;;36.10;24.23;;;0.00;99.90;;;;;;5003320;28;89460;-41
2021/12/27 02:23:48;;;;;;;33.67;23.27;;;-0.10;99.90;;;;;;5002956;28;88874;-43
2021/12/27 02:26:14;;;;;;;38.22;24.63;;;0.00;99.90;;;;;;5003336;28;88704;-39
2021/12/27 02:28:39;;;;;;;34.28;25.02;;;-0.10;99.90;;;;;;5003325;28;88927;-39
2021/12/27 02:31:06;;;;;;;32.50;25.05;;;-0.20;99.90;;;;;;5002888;28;90095;-43
2021/12/27 02:33:32;;;;;;;29.60;22.98;;;-0.20;99.90;;;;;;5003184;28;90498;-36
2021/12/27 02:35:59;;;;;;;27.20;22.85;;;0.00;99.90;;;;;;5002835;28;87629;-42
2021/12/27 02:38:31;;;;;;;37.20;25.48;;;0.00;99.90;;;;;;5002763;28;90036;-42
2021/12/27 02:40:58;;;;;;;31.25;24.48;;;0.10;99.90;;;;;;5002905;28;90129;-36
2021/12/27 02:43:26;;;;;;;30.73;23.20;;;-0.10;99.90;;;;;;5002609;28;90782;-35
2021/12/27 02:45:54;;;;;;;;;;;-0.10;99.90;;;;;;5003592;28;88455;-40
2021/12/27 02:48:23;;;;;;;31.70;23.13;;;0.00;99.90;;;;;;5005623;28;88551;-42
2021/12/27 02:50:49;;;;;;;27.85;23.10;;;-0.10;99.90;;;;;;5002686;28;90486;-37
2021/12/27 02:53:16;;;;;;;35.17;25.23;;;-0.10;99.90;;;;;;5002054;28;89640;-35
2021/12/27 02:55:43;;;;;;;32.22;24.65;;;0.10;99.90;;;;;;5003501;28;87556;-36
2021/12/27 02:58:08;;;;;;;34.10;25.80;;;0.10;99.90;;;;;;5004219;28;88949;-38
2021/12/27 03:00:38;;;;;;;33.47;25.25;;;0.10;99.90;;;;;;5002369;28;90268;-41
2021/12/27 03:03:05;;;;;;;34.40;23.02;;;0.10;99.90;;;;;;5002553;28;90721;-37
2021/12/27 03:05:31;;;;;;;31.75;21.48;;;0.20;99.90;;;;;;5002442;28;89278;-41
2021/12/27 03:07:57;;;;;;;29.40;21.52;;;0.20;99.90;;;;;;5003207;28;90191;-35
2021/12/27 03:10:26;;;;;;;32.00;22.48;;;0.20;99.90;;;;;;5002266;28;89437;-43
2021/12/27 03:12:53;;;;;;;35.45;21.70;;;0.30;99.90;;;;;;5002310;28;90070;-40
2021/12/27 03:15:20;;;;;;;30.90;22.20;;;0.30;99.90;;;;;;5002249;28;87677;-37
2021/12/27 03:17:47;;;;;;;34.85;25.58;;;0.30;99.90;;;;;;5003175;28;87638;-35
2021/12/27 03:20:15;;;;;;;31.30;24.10;;;0.20;99.90;;;;;;4983843;28;90568;-41
2021/12/27 03:22:41;;;;;;;33.05;25.00;;;0.20;99.90;;;;;;4983539;28;89275;-39
2021/12/27 03:25:10;;;;;;;28.45;22.75;;;0.20;99.90;;;;;;5002769;28;87677;-33
2021/12/27 03:27:35;;;;;;;;;;;0.20;99.90;;;;;;5002950;28;87971;-39
2021/12/27 03:30:02;;;;;;;29.20;21.63;;;0.20;99.90;;;;;;5004647;28;89984;-33
2021/12/27 03:32:30;;;;;;;29.95;19.40;;;0.20;99.90;;;;;;5002355;28;90837;-38
2021/12/27 03:35:04;;;;;;;32.93;24.57;;;0.20;99.90;;;;;;5002463;28;88690;-35
2021/12/27 03:37:30;;;;;;;26.65;20.58;;;0.20;99.90;;;;;;5002150;28;87656;-36
2021/12/27 03:39:55;;;;;;;26.30;20.63;;;0.30;99.90;;;;;;5002517;28;90057;-43
2021/12/27 03:42:21;;;;;;;28.10;20.15;;;0.30;99.90;;;;;;5001607;28;90091;-36
2021/12/27 03:44:47;;;;;;;37.17;26.10;;;0.30;99.90;;;;;;5001619;28;89472;-40
2021/12/27 03:47:13;;;;;;;31.83;23.30;;;0.20;99.90;;;;;;5002608;28;87683;-35
2021/12/27 03:49:39;;;;;;;28.92;23.10;;;0.20;99.90;;;;;;5001368;28;89736;-35
2021/12/27 03:52:05;;;;;;;29.27;23.70;;;0.30;99.90;;;;;;5002460;28;89509;-35
2021/12/27 03:54:30;;;;;;;27.25;20.85;;;0.30;99.90;;;;;;5001529;28;88955;-35
2021/12/27 03:56:56;;;;;;;31.58;24.10;;;0.20;99.90;;;;;;5002375;28;89353;-43
2021/12/27 03:59:34;;;;;;;30.23;23.30;;;0.30;99.90;;;;;;5001716;28;89722;-36
2021/12/27 04:02:00;;;;;;;;;;;0.20;99.90;;;;;;5002368;28;90187;-34
2021/12/27 04:04:26;;;;;;;28.85;22.27;;;0.20;99.90;;;;;;5004204;28;88676;-36
2021/12/27 04:06:51;;;;;;;27.63;20.15;;;0.20;99.90;;;;;;5002389;28;89378;-37
2021/12/27 04:09:17;;;;;;;36.50;24.27;;;0.20;99.90;;;;;;5000728;28;91595;-35
2021/12/27 04:11:43;;;;;;;33.05;25.27;;;0.20;99.90;;;;;;4984001;28;91156;-43
2021/12/27 04:14:09;;;;;;;26.38;21.25;;;0.30;99.90;;;;;;5001773;28;89801;-42
2021/12/27 04:16:34;;;;;;;31.25;22.05;;;0.30;99.90;;;;;;4984080;28;88236;-37
2021/12/27 04:19:00;;;;;;;29.67;21.92;;;0.30;99.90;;;;;;5001891;28;90151;-39
2021/12/27 04:21:26;;;;;;;35.13;23.33;;;0.40;99.90;;;;;;5000648;28;90333;-39
2021/12/27 04:23:51;;;;;;;28.75;21.42;;;0.40;99.90;;;;;;5001954;28;89663;-38
2021/12/27 04:26:17;;;;;;;30.02;22.25;;;0.40;99.90;;;;;;5000328;28;87515;-40
2021/12/27 04:28:42;;;;;;;28.52;21.17;;;0.40;99.90;;;;;;5000860;28;90106;-39
2021/12/27 04:31:08;;;;;;;30.48;24.52;;;0.40;99.90;;;;;;5001039;28;90359;-41
2021/12/27 04:33:34;;;;;;;30.75;22.60;;;0.40;99.90;;;;;;5000920;28;89222;-36
2021/12/27 04:35:59;;;;;;;33.95;24.50;;;0.40;99.90;;;;;;5001641;28;88251;-41
2021/12/27 04:38:25;;;;;;;28.70;24.33;;;0.40;99.90;;;;;;5000715;28;90169;-40
2021/12/27 04:40:51;;;;;;;31.70;23.65;;;0.30;99.90;;;;;;5001896;28;90045;-42
2021/12/27 04:43:20;;;;;;;37.63;24.92;;;0.40;99.90;;;;;;4982833;28;88102;-43
2021/12/27 04:45:46;;;;;;;;;;;0.50;99.90;;;;;;5001746;28;89422;-33
2021/12/27 04:48:12;;;;;;;34.15;25.90;;;0.40;99.90;;;;;;5004027;28;90490;-38
2021/12/27 04:50:38;;;;;;;31.25;22.63;;;0.30;99.90;;;;;;4982578;28;88425;-36
2021/12/27 04:53:05;;;;;;;26.15;22.50;;;0.30;99.90;;;;;;5001144;28;88995;-40
2021/12/27 04:55:32;;;;;;;31.45;23.63;;;0.40;99.90;;;;;;4983457;28;89825;-41
2021/12/27 04:57:58;;;;;;;34.05;25.42;;;0.40;99.90;;;;;;5000853;28;89893;-40
2021/12/27 05:00:24;;;;;;;33.55;26.17;;;0.30;99.90;;;;;;5000534;28;90087;-37
2021/12/27 05:02:50;;;;;;;30.70;26.50;;;0.30;99.90;;;;;;4983751;28;87592;-38
2021/12/27 05:05:16;;;;;;;32.60;26.30;;;0.40;99.90;;;;;;5000759;28;90429;-40
2021/12/27 05:07:44;;;;;;;34.03;26.85;;;0.40;99.90;;;;;;5000718;28;90304;-38
2021/12/27 05:10:10;;;;;;;32.78;27.60;;;0.30;99.90;;;;;;5001033;28;90238;-39
2021/12/27 05:12:36;;;;;;;28.30;21.48;;;0.30;99.90;;;;;;5000538;28;87664;-37
2021/12/27 05:15:03;;;;;;;33.95;25.63;;;0.30;99.90;;;;;;5000728;28;87775;-35
2021/12/27 05:17:30;;;;;;;33.53;25.43;;;0.30;99.90;;;;;;5001426;28;89177;-42
2021/12/27 05:19:55;;;;;;;33.15;23.23;;;0.40;99.90;;;;;;5000349;28;89598;-43
2021/12/27 05:22:22;;;;;;;36.80;26.92;;;0.40;99.90;;;;;;5000170;28;88536;-39
2021/12/27 05:24:47;;;;;;;34.05;25.20;;;0.40;99.90;;;;;;5001327;28;88862;-41
2021/12/27 05:27:13;;;;;;;36.65;25.20;;;0.30;99.90;;;;;;5000034;28;89124;-39
2021/12/27 05:29:38;;;;;;;34.30;25.80;;;0.30;99.90;;;;;;5000942;28;89387;-43
2021/12/27 05:32:04;;;;;;;39.10;25.33;;;0.30;99.90;;;;;;5000141;28;89295;-42
2021/12/27 05:34:30;;;;;;;36.00;27.00;;;0.40;99.90;;;;;;5000500;28;90615;-36
2021/12/27 05:36:56;;;;;;;34.83;26.20;;;0.30;99.90;;;;;;4983480;28;93124;-36
2021/12/27 05:39:23;;;;;;;37.95;27.15;;;0.30;99.90;;;;;;4999965;28;90361;-39
2021/12/27 05:41:49;;;;;;;29.40;25.77;;;0.30;99.90;;;;;;5001295;28;87898;-34
2021/12/27 05:44:16;;;;;;;28.92;24.38;;;0.20;99.90;;;;;;4982836;28;88140;-36
2021/12/27 05:46:42;;;;;;;34.13;26.00;;;0.30;99.90;;;;;;5000008;28;90825;-38
2021/12/27 05:49:08;;;;;;;29.13;23.00;;;0.30;99.90;;;;;;5000619;28;89943;-34
2021/12/27 05:51:33;;;;;;;38.35;25.80;;;0.40;99.90;;;;;;5000256;28;88218;-39
2021/12/27 05:53:59;;;;;;;28.13;24.15;;;0.50;99.90;;;;;;5000729;28;89224;-41
2021/12/27 05:56:25;;;;;;;37.05;26.45;;;0.40;99.90;;;;;;4982509;28;92007;-35
2021/12/27 05:58:51;;;;;;;31.08;24.67;;;0.40;99.90;;;;;;5000053;28;90004;-38
2021/12/27 06:01:17;;;;;;;36.15;26.25;;;0.40;99.90;;;;;;4999586;28;88574;-44
2021/12/27 06:03:42;;;;;;;33.92;21.30;;;0.40;99.90;;;;;;5008004;28;87679;-37
2021/12/27 06:06:09;;;;;;;29.83;24.33;;;0.40;99.90;;;;;;5005947;28;90945;-40
2021/12/27 06:08:35;;;;;;;35.22;24.20;;;0.50;99.90;;;;;;4990254;28;90253;-41
2021/12/27 06:11:00;;;;;;;32.20;25.27;;;0.60;99.90;;;;;;5008505;28;88907;-42
2021/12/27 06:13:26;;;;;;;29.92;26.73;;;0.50;99.90;;;;;;5006878;28;88769;-38
2021/12/27 06:15:52;;;;;;;32.97;25.88;;;0.40;99.90;;;;;;5008363;28;90034;-39
2021/12/27 06:18:17;;;;;;;32.53;27.65;;;0.50;99.90;;;;;;5008230;28;90002;-37
2021/12/27 06:20:43;;;;;;;30.30;22.10;;;0.50;99.90;;;;;;5006338;28;88850;-38
2021/12/27 06:23:08;;;;;;;30.42;24.30;;;0.50;99.90;;;;;;5008128;28;88539;-39
2021/12/27 06:25:34;;;;;;;32.10;24.90;;;0.50;99.90;;;;;;5007042;28;90164;-36
2021/12/27 06:28:00;;;;;;;30.45;24.10;;;0.60;99.90;;;;;;5006877;28;89922;-36
2021/12/27 06:30:26;;;;;;;36.55;25.40;;;0.50;99.90;;;;;;5008529;28;88296;-39
2021/12/27 06:32:52;;;;;;;31.17;23.88;;;0.50;99.90;;;;;;5008187;28;89125;-37
2021/12/27 06:35:18;;;;;;;38.10;28.23;;;0.40;99.90;;;;;;5005956;28;90508;-40
2021/12/27 06:37:46;;;;;;;40.05;29.45;;;0.50;99.90;;;;;;5007978;28;90439;-41
2021/12/27 06:40:14;;;;;;;41.78;27.33;;;0.50;99.90;;;;;;4991186;28;88985;-37
2021/12/27 06:42:40;;;;;;;32.60;24.38;;;0.50;99.90;;;;;;5006492;28;87748;-42
2021/12/27 06:45:06;;;;;;;31.77;25.42;;;0.60;99.90;;;;;;5006958;28;91036;-36
2021/12/27 06:47:32;;;;;;;27.40;23.10;;;0.50;99.90;;;;;;5005241;28;91134;-37
2021/12/27 06:49:58;;;;;;;38.83;29.17;;;0.60;99.90;;;;;;4988782;28;89592;-35
2021/12/27 06:52:24;;;;;;;36.25;26.83;;;0.60;99.90;;;;;;4990125;28;90024;-38
2021/12/27 06:54:49;;;;;;;32.47;27.08;;;0.50;99.90;;;;;;4999630;28;92567;-38
2021/12/27 06:57:18;;;;;;;38.75;29.23;;;0.40;99.90;;;;;;5012213;28;89684;-40
2021/12/27 06:59:44;;;;;;;31.73;28.35;;;0.50;99.90;;;;;;5009898;28;87640;-36
2021/12/27 07:02:10;;;;;;;30.33;23.15;;;0.40;99.90;;;;;;5011659;28;88549;-36
2021/12/27 07:04:36;;;;;;;36.50;27.52;;;0.40;99.90;;;;;;5010050;28;89653;-38
2021/12/27 07:07:02;;;;;;;40.15;28.00;;;0.40;99.90;;;;;;5010155;28;90092;-40
2021/12/27 07:09:27;;;;;;;33.60;24.17;;;0.40;99.90;;;;;;5011449;28;90245;-36
2021/12/27 07:11:53;;;;;;;35.58;27.30;;;0.40;99.90;;;;;;5010147;28;88382;-39
2021/12/27 07:14:19;;;;;;;32.15;26.20;;;0.50;99.90;;;;;;4992407;28;88644;-35
2021/12/27 07:16:45;;;;;;;37.78;29.70;;;0.50;99.90;;;;;;4991137;28;89742;-43
2021/12/27 07:19:10;;;;;;;36.47;25.02;;;0.60;99.90;;;;;;4991532;28;89824;-37
2021/12/27 07:21:36;;;;;;;39.47;25.83;;;0.60;99.90;;;;;;5008900;28;88836;-42
2021/12/27 07:24:02;;;;;;;35.47;28.67;;;0.60;99.90;;;;;;4999166;28;90603;-37
2021/12/27 07:26:28;;;;;;;40.53;21.13;;;0.60;99.90;;;;;;5014386;28;89656;-37
2021/12/27 07:28:53;;;;;;;31.73;25.98;;;0.60;99.90;;;;;;5022588;28;88112;-35
2021/12/27 07:31:19;;;;;;;30.02;23.65;;;0.70;99.90;;;;;;5005294;28;88848;-37
2021/12/27 07:33:44;;;;;;;36.72;26.20;;;0.70;99.90;;;;;;5021842;28;90091;-38
2021/12/27 07:36:11;;;;;;;36.50;26.40;;;0.70;99.90;;;;;;5022395;28;90000;-39
2021/12/27 07:38:39;;;;;;;33.08;26.23;;;0.70;99.90;;;;;;4990839;28;89686;-40
2021/12/27 07:41:05;;;;;;;35.30;25.63;;;0.70;99.90;;;;;;4990953;28;88171;-38
2021/12/27 07:43:31;;;;;;;31.50;28.08;;;0.80;99.90;;;;;;4988444;28;90856;-40
2021/12/27 07:45:57;;;;;;;34.17;26.33;;;0.70;99.90;;;;;;4985344;28;89662;-41
2021/12/27 07:48:23;;;;;;;35.97;26.50;;;0.70;99.90;;;;;;4986460;28;89905;-45
2021/12/27 07:50:49;;;;;;;40.15;29.42;;;0.70;99.90;;;;;;4976038;28;88167;-40
2021/12/27 07:53:15;;;;;;;39.78;29.88;;;0.80;99.90;;;;;;4983466;28;90560;-41
2021/12/27 07:55:40;;;;;;;39.85;29.05;;;0.70;99.90;;;;;;4986454;28;90012;-40
2021/12/27 07:58:06;;;;;;;35.30;26.33;;;0.70;99.90;;;;;;4947302;28;89308;-40
2021/12/27 08:00:32;;;;;;;41.03;30.23;;;0.80;99.90;;;;;;4962475;28;89451;-44
2021/12/27 08:02:58;;;;;;;37.63;28.30;;;0.70;99.90;;;;;;4976274;28;89206;-33
2021/12/27 08:05:23;;;;;;;42.05;28.17;;;0.80;99.90;;;;;;4980272;28;90435;-41
2021/12/27 08:07:49;;;;;;;44.42;28.67;;;0.80;99.90;;;;;;4976159;28;89761;-42
2021/12/27 08:10:15;;;;;;;42.00;30.25;;;0.90;99.90;;;;;;4975369;28;88064;-41
2021/12/27 08:12:42;;;;;;;37.08;26.30;;;0.90;99.90;;;;;;4975134;28;89849;-38
2021/12/27 08:15:09;;;;;;;44.67;28.38;;;1.00;99.90;;;;;;4976080;28;89602;-37
2021/12/27 08:17:36;;;;;;;42.13;27.30;;;1.00;99.90;;;;;;4978166;28;89326;-42
2021/12/27 08:20:04;;;;;;;39.58;28.58;;;1.00;99.90;;;;;;4996451;28;89977;-34
2021/12/27 08:22:29;;;;;;;37.42;28.08;;;1.10;99.90;;;;;;4974998;28;90282;-41
2021/12/27 08:24:55;;;;;;;32.55;26.75;;;1.00;99.90;;;;;;4975299;28;90711;-40
2021/12/27 08:27:23;;;;;;;39.95;27.40;;;1.00;99.90;;;;;;4956802;28;90138;-37
2021/12/27 08:29:49;;;;;;;44.35;30.65;;;1.20;99.90;;;;;;4954483;28;88291;-36
2021/12/27 08:32:15;;;;;;;44.10;29.45;;;1.20;99.90;;;;;;4962612;28;91868;-40
2021/12/27 08:34:41;;;;;;;47.22;30.48;;;1.20;99.90;;;;;;4960842;28;91782;-40
2021/12/27 08:37:07;;;;;;;43.60;29.20;;;1.20;99.90;;;;;;4956488;28;90003;-37
2021/12/27 08:39:34;;;;;;;33.58;26.30;;;1.20;99.90;;;;;;4955395;28;89138;-41
2021/12/27 08:42:01;;;;;;;40.90;24.70;;;1.30;99.90;;;;;;4957584;28;89259;-35
2021/12/27 08:44:26;;;;;;;38.72;29.25;;;1.30;99.90;;;;;;4964758;28;90321;-46
2021/12/27 08:46:52;;;;;;;51.45;33.03;;;1.40;99.90;;;;;;4967600;28;88398;-43
2021/12/27 08:49:17;;;;;;;45.60;28.90;;;1.30;99.90;;;;;;4956721;28;88743;-46
2021/12/27 08:51:43;;;;;;;39.95;27.83;;;1.30;99.90;;;;;;4964306;28;90192;-45
2021/12/27 08:54:09;;;;;;;46.08;33.78;;;1.30;99.90;;;;;;4963740;28;89336;-39
2021/12/27 08:56:36;;;;;;;40.33;31.95;;;1.30;99.90;;;;;;4962781;28;88691;-44
2021/12/27 08:59:02;;;;;;;42.55;33.38;;;1.30;99.90;;;;;;4963007;28;87531;-39
2021/12/27 09:01:28;;;;;;;47.40;31.58;;;1.30;99.90;;;;;;4962965;28;91330;-46
2021/12/27 09:03:54;;;;;;;50.38;32.60;;;1.30;99.90;;;;;;4962530;28;89576;-42
2021/12/27 09:06:20;;;;;;;48.38;31.75;;;1.30;99.90;;;;;;4963924;28;89665;-39
2021/12/27 09:08:45;;;;;;;42.55;31.63;;;1.40;99.90;;;;;;4962307;28;88337;-39
2021/12/27 09:11:11;;;;;;;45.08;31.83;;;1.40;99.90;;;;;;4974566;28;92666;-39
2021/12/27 09:13:37;;;;;;;53.72;30.92;;;1.30;99.90;;;;;;4954585;28;90133;-41
2021/12/27 09:16:03;;;;;;;48.20;30.38;;;1.40;99.90;;;;;;4955110;28;89029;-38
2021/12/27 09:18:31;;;;;;;37.83;23.77;;;1.50;99.90;;;;;;4966129;28;87675;-41
2021/12/27 09:20:57;;;;;;;38.65;29.10;;;1.50;99.90;;;;;;4961077;28;90638;-44
2021/12/27 09:23:23;;;;;;;45.40;33.58;;;1.50;99.90;;;;;;4955372;28;90051;-37
2021/12/27 09:25:49;;;;;;;51.83;32.78;;;1.50;99.90;;;;;;4959718;28;88459;-39
2021/12/27 09:28:15;;;;;;;49.33;32.20;;;1.50;99.90;;;;;;4979746;28;90019;-46
2021/12/27 09:30:41;;;;;;;43.78;29.73;;;1.50;99.90;;;;;;4983436;28;91847;-39
2021/12/27 09:33:07;;;;;;;59.63;34.90;;;1.50;99.90;;;;;;4974790;28;89453;-37
2021/12/27 09:35:33;;;;;;;49.47;31.38;;;1.50;99.90;;;;;;4974916;28;89564;-38
2021/12/27 09:37:59;;;;;;;59.70;37.22;;;1.50;99.90;;;;;;4974712;28;87796;-37
2021/12/27 09:40:25;;;;;;;64.60;33.90;;;1.50;99.90;;;;;;4974345;28;90144;-42
2021/12/27 09:42:52;;;;;;;56.17;33.80;;;1.50;99.90;;;;;;4976100;28;89579;-37
2021/12/27 09:45:20;;;;;;;53.35;32.95;;;1.50;99.90;;;;;;4982478;28;88794;-41
2021/12/27 09:47:47;;;;;;;61.15;35.35;;;1.60;99.90;;;;;;4990752;28;88435;-38
2021/12/27 09:50:18;;;;;;;52.95;31.38;;;1.60;99.90;;;;;;5005067;28;89879;-44
2021/12/27 09:52:45;;;;;;;53.63;33.92;;;1.60;99.90;;;;;;4990734;28;88850;-38
2021/12/27 09:55:11;;;;;;;59.47;38.42;;;1.60;99.90;;;;;;4973489;28;88647;-43
2021/12/27 09:57:36;;;;;;;54.10;35.95;;;1.60;99.90;;;;;;4972402;28;89819;-40
2021/12/27 10:00:05;;;;;;;51.90;31.80;;;1.70;99.90;;;;;;4974519;28;90190;-38
2021/12/27 10:02:34;;;;;;;66.30;36.72;;;1.70;99.90;;;;;;4981246;28;91926;-38
2021/12/27 10:05:00;;;;;;;68.22;36.08;;;1.60;99.90;;;;;;4999057;28;88593;-40
2021/12/27 10:07:27;;;;;;;58.05;36.10;;;1.60;99.90;;;;;;4997285;28;89371;-38
2021/12/27 10:09:59;;;;;;;51.95;28.40;;;1.60;99.90;;;;;;4994941;28;90083;-37
2021/12/27 10:12:28;;;;;;;66.22;35.85;;;1.70;99.90;;;;;;4998568;28;89735;-41
2021/12/27 10:14:58;;;;;;;52.80;33.80;;;1.80;99.90;;;;;;4980004;28;89385;-39
2021/12/27 10:17:25;;;;;;;52.28;33.75;;;1.70;99.90;;;;;;4994575;28;89378;-37
2021/12/27 10:19:53;;;;;;;58.85;36.30;;;1.80;99.90;;;;;;4987858;28;90388;-39
2021/12/27 10:22:20;;;;;;;53.47;34.35;;;1.80;99.90;;;;;;4990901;28;90100;-41
2021/12/27 10:24:50;;;;;;;50.80;36.25;;;1.70;99.90;;;;;;4991177;28;89013;-37
2021/12/27 10:27:17;;;;;;;52.47;34.97;;;1.80;99.90;;;;;;4980886;28;89600;-39
2021/12/27 10:29:43;;;;;;;70.88;36.00;;;1.80;99.90;;;;;;4975895;28;91059;-39
2021/12/27 10:32:16;;;;;;;57.65;36.00;;;1.80;99.90;;;;;;4986459;28;89704;-38
2021/12/27 10:34:45;;;;;;;69.68;46.33;;;1.80;99.90;;;;;;4987595;28;88665;-38
2021/12/27 10:37:25;;;;;;;51.65;37.55;;;1.80;99.90;;;;;;4975694;28;88702;-41
2021/12/27 10:40:09;;;;;;;60.50;33.15;;;1.90;99.90;;;;;;4975281;28;89889;-39
2021/12/27 10:42:37;;;;;;;60.50;35.63;;;1.90;99.90;;;;;;4975129;28;89447;-39
2021/12/27 10:45:19;;;;;;;54.45;34.05;;;1.80;99.90;;;;;;4958306;28;87662;-38
2021/12/27 10:48:03;;;;;;;61.00;34.25;;;1.90;99.90;;;;;;4975107;28;88714;-40
2021/12/27 10:50:31;;;;;;;60.35;35.47;;;2.00;99.90;;;;;;4978154;28;90207;-37
2021/12/27 10:53:05;;;;;;;56.80;35.63;;;2.00;99.90;;;;;;4974334;28;90335;-38
2021/12/27 10:55:46;;;;;;;75.65;39.53;;;2.00;99.90;;;;;;4975628;28;88867;-39
2021/12/27 10:58:15;;;;;;;54.92;34.45;;;2.00;99.90;;;;;;4975463;28;88358;-39
2021/12/27 11:00:43;;;;;;;71.60;37.33;;;2.00;99.90;;;;;;4974692;28;90099;-36
2021/12/27 11:03:23;;;;;;;75.78;37.90;;;2.00;99.90;;;;;;4975536;28;89986;-39
2021/12/27 11:05:48;;;;;;;64.55;37.47;;;2.00;99.90;;;;;;4974937;28;89375;-44
2021/12/27 11:08:14;;;;;;;75.53;39.28;;;2.00;99.90;;;;;;4976766;28;88579;-39
2021/12/27 11:10:40;;;;;;;70.35;38.17;;;2.00;99.90;;;;;;4988893;28;90260;-37
2021/12/27 11:13:05;;;;;;;76.50;41.53;;;2.00;99.90;;;;;;4975155;28;90094;-42
2021/12/27 11:15:34;;;;;;;72.05;38.67;;;2.00;99.90;;;;;;4974579;28;89996;-45
2021/12/27 11:18:00;;;;;;;70.65;38.40;;;2.00;99.90;;;;;;4974786;28;89392;-43
2021/12/27 11:20:27;;;;;;;69.45;40.17;;;2.00;99.90;;;;;;4974663;28;90453;-37
2021/12/27 11:22:58;;;;;;;62.65;32.70;;;2.10;99.90;;;;;;4974677;28;89873;-42
2021/12/27 11:25:39;;;;;;;80.07;40.33;;;2.10;99.90;;;;;;4975061;28;88785;-37
2021/12/27 11:28:24;;;;;;;93.05;42.70;;;2.10;99.90;;;;;;4975198;28;89581;-40
2021/12/27 11:30:50;;;;;;;70.05;39.85;;;2.20;99.90;;;;;;4976718;28;90389;-40
2021/12/27 11:33:19;;;;;;;75.45;38.65;;;2.20;99.90;;;;;;4989021;28;90045;-40
2021/12/27 11:35:51;;;;;;;82.53;42.45;;;2.20;99.90;;;;;;4992844;28;88969;-40
2021/12/27 11:38:28;;;;;;;87.93;38.67;;;2.30;99.90;;;;;;4978875;28;90054;-46
2021/12/27 11:40:54;;;;;;;93.07;42.00;;;2.20;99.90;;;;;;4976369;28;90547;-37
2021/12/27 11:43:20;;;;;;;76.50;40.92;;;2.30;99.90;;;;;;4976267;28;89537;-40
2021/12/27 11:45:54;;;;;;;67.18;40.50;;;2.30;99.90;;;;;;4976143;28;88414;-41
2021/12/27 11:48:26;;;;;;;73.03;41.50;;;2.30;99.90;;;;;;5000279;28;88747;-39
2021/12/27 11:50:58;;;;;;;78.35;43.15;;;2.20;99.90;;;;;;4976649;28;88876;-37
2021/12/27 11:53:31;;;;;;;62.97;35.65;;;2.30;99.90;;;;;;4986505;28;89565;-43
2021/12/27 11:55:58;;;;;;;89.90;39.90;;;2.30;99.90;;;;;;4976272;28;88198;-39
2021/12/27 11:58:35;;;;;;;73.70;42.05;;;2.30;99.90;;;;;;4979497;28;88712;-39
2021/12/27 12:01:06;;;;;;;71.80;36.17;;;2.30;99.90;;;;;;4976084;28;90414;-39
2021/12/27 12:03:54;;;;;;;104.20;43.72;;;2.30;99.90;;;;;;4975554;28;90457;-43
2021/12/27 12:06:38;;;;;;;93.93;42.45;;;2.30;99.90;;;;;;4983823;28;88430;-44
2021/12/27 12:09:18;;;;;;;91.10;40.95;;;2.30;99.90;;;;;;4975995;28;88531;-42
2021/12/27 12:11:45;;;;;;;72.78;38.80;;;2.30;99.90;;;;;;4975985;28;89189;-44
2021/12/27 12:14:29;;;;;;;95.63;45.22;;;2.30;99.90;;;;;;4976369;28;89252;-37
2021/12/27 12:16:57;;;;;;;79.97;42.10;;;2.30;99.90;;;;;;4975866;28;90162;-35
2021/12/27 12:19:44;;;;;;;92.75;44.42;;;2.50;99.90;;;;;;4975533;28;89519;-41
2021/12/27 12:22:39;;;;;;;92.05;43.42;;;2.50;99.90;;;;;;4975361;28;90325;-41
2021/12/27 12:25:12;;;;;;;75.10;38.95;;;2.40;99.90;;;;;;4976508;28;89799;-36
2021/12/27 12:28:03;;;;;;;74.07;38.00;;;2.40;99.90;;;;;;4975963;28;89114;-38
2021/12/27 12:30:32;;;;;;;88.15;44.20;;;2.50;99.90;;;;;;5006905;28;88229;-38
2021/12/27 12:33:03;;;;;;;73.10;41.83;;;2.60;99.90;;;;;;4981028;28;89402;-39
2021/12/27 12:35:33;;;;;;;66.53;35.35;;;2.70;99.90;;;;;;4975131;28;89494;-38
2021/12/27 12:38:28;;;;;;;79.00;43.13;;;2.70;99.90;;;;;;4976679;28;89357;-39
2021/12/27 12:41:04;;;;;;;90.95;43.72;;;2.60;99.90;;;;;;4975648;28;89380;-43
2021/12/27 12:43:43;;;;;;;77.05;39.20;;;2.60;99.90;;;;;;4975424;28;90295;-38